الصفحة الرئيسية
METAR-TAF:

METAR-TAF

مطار :

نوميا / La Tontouta, نيو كاليدونيا

دائرة عرض: 22-01S, خط طول: 166-13E, ارتفاع: 16 متر

مراقبة الطقس الحالي

تاريخ ووقت الإصدار 21 دقيقة قبل الساعة 03:00UTC
ريح 4 عقدة من الشرق/الجنوب الشرقي, الاتجاه يتراوح بين الشرق/الشمال الشرقي و الجنوب/الجنوب الشرقي
درجة الحرارة 28°درجة مئوية
الرطوبة 70%
ضغط 1006 hPa
الرؤية 10 كم أو أكثر
غيوم قليلة على ارتفاع 2200 قدم
ملبد بالغيوم على ارتفاع 6400 قدم

METAR: NWWW 180300Z AUTO 11004KT 070V150 9999 FEW022 OVC064 28/22 Q1006 NOSIG

زمن: 14:21 (03:21 UTC)

توقعات

تاريخ ووقت الإصدار 1ساعة و 16 دقيقة قبل الساعة 02:05UTC
التوقعات صالحة من18 الساعة 02 UTC إلى 18 الساعة 24 UTC
ريح 12 عقدة من الشرق/الجنوب الشرقي
الرؤية 10 كم أو أكثر
غيوم متفرقة على ارتفاع 3300 قدم
أصبح
من 18 الساعة 09 UTC إلى 18 الساعة 11 UTC
ريح 5 عقدة من الشمال الشرقي

TAF: NWWW 180205Z 1802/1824 12012KT 9999 SCT033 BECMG 1809/1811 04005KT

أرصاد الطقس والتوقعات من أكثر من 4000 مطار (تقارير الطقس للمطار METAR والتنبؤ بالطقس بالمطارTAF).

المحطات المتاحة هي النقط الصفراء والحمراء على الخريطة.

حرك المؤشر فوق النقطة لمعرفة اسم المحطة.

ثم انقر لمعرفة أرصاد وتوقعات الطقس.

لتغيير الخارطة: اضغط على الأزرار الخضراء مع رمز الصليب الأسود للتكبير. على الزر الأخضر مع شرطة للتصغير، أو على الأسهم الخضراء للخرائط المجاورة.


METAR-TAF: